Time;durP1;ratioP1;P1;durP2;ratioP2;P2;SDS_P1;SDS_P2;PMS_P1;PMS_P2;Temp;Humidity;BMP_temperature;BMP_pressure;BME280_temperature;BME280_humidity;BME280_pressure;Samples;Min_cycle;Max_cycle;Signal;HPM_P1;HPM_P2
2023/05/18 00:02:04;;;;;;;7.38;2.20;;;4.10;89.20;;;;;;5077423;28;20503;-71
2023/05/18 00:04:33;;;;;;;9.15;2.58;;;4.00;89.40;;;;;;5074026;28;20046;-71
2023/05/18 00:07:02;;;;;;;6.28;2.50;;;4.00;89.40;;;;;;5093507;28;20054;-71
2023/05/18 00:09:32;;;;;;;7.20;2.83;;;4.00;89.60;;;;;;5077049;28;20411;-71
2023/05/18 00:11:59;;;;;;;10.55;3.38;;;4.00;90.00;;;;;;5093841;28;20043;-71
2023/05/18 00:14:26;;;;;;;7.47;3.13;;;3.90;89.90;;;;;;5093465;28;20403;-71
2023/05/18 00:16:55;;;;;;;8.57;3.17;;;3.90;90.00;;;;;;5093978;28;20932;-71
2023/05/18 00:19:22;;;;;;;7.18;2.45;;;3.90;90.30;;;;;;5098623;27;20034;-71
2023/05/18 00:21:50;;;;;;;9.93;2.97;;;3.90;90.70;;;;;;5100929;28;20039;-71
2023/05/18 00:24:16;;;;;;;8.48;3.67;;;3.90;91.10;;;;;;5093879;28;20046;-71
2023/05/18 00:26:44;;;;;;;11.18;3.78;;;3.90;91.20;;;;;;5076549;28;20036;-71
2023/05/18 00:29:11;;;;;;;7.93;3.28;;;3.80;91.20;;;;;;5092616;28;20122;-71
2023/05/18 00:31:37;;;;;;;6.90;2.67;;;3.80;91.60;;;;;;5069759;28;20043;-71
2023/05/18 00:34:11;;;;;;;11.45;3.05;;;3.80;91.90;;;;;;5088222;28;20055;-71
2023/05/18 00:36:38;;;;;;;6.70;2.88;;;3.80;92.40;;;;;;5076566;28;20271;-71
2023/05/18 00:39:05;;;;;;;8.13;3.15;;;3.80;92.70;;;;;;5076214;28;20123;-71
2023/05/18 00:41:31;;;;;;;6.15;2.88;;;3.80;92.70;;;;;;5076291;28;20048;-71
2023/05/18 00:43:58;;;;;;;13.65;3.45;;;3.80;92.70;;;;;;5076128;28;20065;-71
2023/05/18 00:46:25;;;;;;;4.32;2.47;;;3.80;93.40;;;;;;5093061;28;20077;-71
2023/05/18 00:48:51;;;;;;;9.32;2.95;;;3.80;93.60;;;;;;5076354;28;20040;-71
2023/05/18 00:51:19;;;;;;;9.57;2.70;;;3.80;93.50;;;;;;5093564;27;20046;-71
2023/05/18 00:53:46;;;;;;;7.88;2.58;;;3.80;93.90;;;;;;5076037;28;20439;-71
2023/05/18 00:56:12;;;;;;;8.05;2.45;;;3.80;94.30;;;;;;5076233;28;20056;-71
2023/05/18 00:58:40;;;;;;;11.10;3.63;;;3.80;94.30;;;;;;5076134;28;20042;-71
2023/05/18 01:01:05;;;;;;;8.63;2.80;;;3.80;94.60;;;;;;5092784;28;20066;-71
2023/05/18 01:03:38;;;;;;;9.37;2.63;;;3.90;97.00;;;;;;5075852;28;20047;-71
2023/05/18 01:06:08;;;;;;;9.50;3.00;;;3.90;96.90;;;;;;5092697;28;20134;-71
2023/05/18 01:08:35;;;;;;;6.53;2.75;;;3.90;96.60;;;;;;5089982;28;20086;-71
2023/05/18 01:11:06;;;;;;;8.02;2.55;;;3.90;97.80;;;;;;5092369;28;20126;-71
2023/05/18 01:13:46;;;;;;;8.30;2.63;;;3.90;97.40;;;;;;5075622;28;20075;-71
2023/05/18 01:16:20;;;;;;;9.13;2.90;;;3.90;96.90;;;;;;5075621;28;20510;-71
2023/05/18 01:18:54;;;;;;;9.60;2.83;;;3.90;96.60;;;;;;5093056;27;20065;-71
2023/05/18 01:21:49;;;;;;;8.38;2.88;;;3.90;97.20;;;;;;5081430;27;20046;-71
2023/05/18 01:24:24;;;;;;;7.55;2.60;;;3.80;97.90;;;;;;5092877;28;20047;-71
2023/05/18 01:26:56;;;;;;;6.25;2.80;;;3.80;97.80;;;;;;5092134;28;20055;-71
2023/05/18 01:29:23;;;;;;;7.18;2.38;;;3.80;98.00;;;;;;5089340;28;20161;-71
2023/05/18 01:31:49;;;;;;;5.43;2.50;;;3.80;98.90;;;;;;5087364;28;20035;-71
2023/05/18 01:34:15;;;;;;;8.10;2.47;;;3.80;98.30;;;;;;5092221;28;20054;-71
2023/05/18 01:36:41;;;;;;;5.33;2.77;;;3.80;98.50;;;;;;5092232;28;20122;-71
2023/05/18 01:39:08;;;;;;;5.93;2.17;;;3.90;99.00;;;;;;5074080;28;20381;-71
2023/05/18 01:41:45;;;;;;;8.70;2.60;;;3.90;99.90;;;;;;5091919;28;20043;-71
2023/05/18 01:44:28;;;;;;;8.60;2.75;;;3.90;99.90;;;;;;5074213;28;20039;-71
2023/05/18 01:47:14;;;;;;;7.03;3.13;;;4.00;99.90;;;;;;5074400;28;20031;-70
2023/05/18 01:50:03;;;;;;;4.43;2.20;;;4.10;99.90;;;;;;5091926;28;20566;-70
2023/05/18 01:52:34;;;;;;;9.73;2.97;;;4.10;99.90;;;;;;5075789;28;20519;-70
2023/05/18 01:55:02;;;;;;;7.05;2.65;;;4.20;99.90;;;;;;5091411;28;20124;-70
2023/05/18 01:57:30;;;;;;;6.35;2.72;;;4.30;99.90;;;;;;5084150;28;20421;-70
2023/05/18 01:59:58;;;;;;;7.63;2.78;;;4.30;99.90;;;;;;5074381;28;20380;-70
2023/05/18 02:02:28;;;;;;;8.25;2.75;;;4.40;99.90;;;;;;5074538;28;20039;-70
2023/05/18 02:04:53;;;;;;;4.50;2.47;;;4.50;99.90;;;;;;5091311;28;20131;-70
2023/05/18 02:07:19;;;;;;;8.47;2.70;;;4.60;99.90;;;;;;5068139;28;20126;-70
2023/05/18 02:09:45;;;;;;;6.03;2.47;;;4.70;99.90;;;;;;5074228;28;20118;-70
2023/05/18 02:12:11;;;;;;;9.70;2.97;;;4.80;99.90;;;;;;5072967;28;20456;-71
2023/05/18 02:14:37;;;;;;;8.02;2.55;;;4.90;99.90;;;;;;5091666;28;20445;-71
2023/05/18 02:17:05;;;;;;;6.88;2.67;;;4.90;99.90;;;;;;5091138;28;20049;-71
2023/05/18 02:19:32;;;;;;;8.32;2.42;;;5.00;99.90;;;;;;5085974;28;20074;-71
2023/05/18 02:21:58;;;;;;;9.02;2.58;;;5.10;99.90;;;;;;5092385;28;20043;-71
2023/05/18 02:24:24;;;;;;;7.03;2.80;;;5.10;99.90;;;;;;5091208;28;20050;-71
2023/05/18 02:26:50;;;;;;;7.10;2.93;;;5.20;99.90;;;;;;5074109;28;20526;-71
2023/05/18 02:29:16;;;;;;;5.90;2.47;;;5.20;99.90;;;;;;5089188;28;20044;-71
2023/05/18 02:31:42;;;;;;;6.80;3.15;;;5.20;99.90;;;;;;5084903;28;20036;-71
2023/05/18 02:34:09;;;;;;;8.37;2.60;;;5.20;99.90;;;;;;5090919;28;20051;-71
2023/05/18 02:36:38;;;;;;;7.40;2.33;;;5.30;99.90;;;;;;5091183;28;20365;-71
2023/05/18 02:39:09;;;;;;;6.47;2.90;;;5.20;99.90;;;;;;5091250;28;20070;-71
2023/05/18 02:41:36;;;;;;;12.90;2.78;;;5.30;99.90;;;;;;5091108;28;20049;-71
2023/05/18 02:44:05;;;;;;;5.30;2.25;;;5.30;99.90;;;;;;5074153;28;20535;-71
2023/05/18 02:46:31;;;;;;;10.63;2.65;;;5.30;99.90;;;;;;5091062;28;20066;-71
2023/05/18 02:48:57;;;;;;;7.55;2.40;;;5.30;99.90;;;;;;5074150;28;20479;-71
2023/05/18 02:51:23;;;;;;;6.20;2.75;;;5.30;99.90;;;;;;5074987;27;20043;-71
2023/05/18 02:53:50;;;;;;;7.25;2.60;;;5.30;99.90;;;;;;5070317;28;20036;-71
2023/05/18 02:56:16;;;;;;;7.68;2.90;;;5.30;99.90;;;;;;5086246;28;20039;-71
2023/05/18 02:58:43;;;;;;;8.73;3.03;;;5.30;99.90;;;;;;5090551;28;20027;-71
2023/05/18 03:01:10;;;;;;;9.63;3.03;;;5.30;99.90;;;;;;5090660;28;20456;-71
2023/05/18 03:03:37;;;;;;;9.45;3.13;;;5.30;99.90;;;;;;5073630;28;20032;-71
2023/05/18 03:06:04;;;;;;;6.07;3.30;;;5.30;99.90;;;;;;5090171;28;20043;-71
2023/05/18 03:08:30;;;;;;;10.93;3.83;;;5.30;99.90;;;;;;5090221;28;20073;-71
2023/05/18 03:10:57;;;;;;;6.37;3.80;;;5.30;99.90;;;;;;5091017;28;20047;-71
2023/05/18 03:13:24;;;;;;;10.68;4.68;;;5.40;99.90;;;;;;5090766;28;20055;-71
2023/05/18 03:15:50;;;;;;;8.82;4.22;;;5.40;99.90;;;;;;5073566;28;20109;-71
2023/05/18 03:18:17;;;;;;;7.35;3.70;;;5.40;99.90;;;;;;5081227;28;20042;-71
2023/05/18 03:20:43;;;;;;;7.38;3.95;;;5.40;99.90;;;;;;5072454;28;20079;-71
2023/05/18 03:23:09;;;;;;;9.50;4.25;;;5.40;99.90;;;;;;5081421;28;20184;-68
2023/05/18 03:25:36;;;;;;;9.83;3.67;;;5.50;99.90;;;;;;5090494;28;20040;-70
2023/05/18 03:28:04;;;;;;;9.05;4.25;;;5.50;99.90;;;;;;5090215;28;20059;-70
2023/05/18 03:30:33;;;;;;;10.55;4.55;;;5.50;99.90;;;;;;5081882;28;20062;-70
2023/05/18 03:33:00;;;;;;;7.80;4.18;;;5.60;99.90;;;;;;5073696;28;20483;-70
2023/05/18 03:35:26;;;;;;;10.02;4.47;;;5.60;99.90;;;;;;5090458;28;20591;-70
2023/05/18 03:37:52;;;;;;;8.53;4.17;;;5.70;99.90;;;;;;5089983;28;20334;-69
2023/05/18 03:40:19;;;;;;;8.00;4.20;;;5.70;99.90;;;;;;5089423;28;20153;-71
2023/05/18 03:42:44;;;;;;;7.75;3.88;;;5.70;99.90;;;;;;5072595;28;20092;-70
2023/05/18 03:45:11;;;;;;;10.30;3.70;;;5.70;99.90;;;;;;5089455;28;20487;-70
2023/05/18 03:47:37;;;;;;;7.95;4.57;;;5.80;99.90;;;;;;5089994;28;20055;-70
2023/05/18 03:50:04;;;;;;;10.05;4.80;;;5.80;99.90;;;;;;5072703;28;20042;-70
2023/05/18 03:52:32;;;;;;;10.73;4.30;;;5.80;99.90;;;;;;5073684;28;20439;-70
2023/05/18 03:55:00;;;;;;;13.20;4.68;;;5.80;99.90;;;;;;5073773;28;20535;-70
2023/05/18 03:57:27;;;;;;;10.98;4.30;;;5.90;99.90;;;;;;5090140;28;20036;-70
2023/05/18 03:59:53;;;;;;;10.10;4.28;;;5.90;99.90;;;;;;5089885;28;20131;-70
2023/05/18 04:02:19;;;;;;;9.40;4.57;;;6.00;99.90;;;;;;5066821;28;20088;-70
2023/05/18 04:04:46;;;;;;;12.17;4.30;;;6.00;99.90;;;;;;5089986;28;20449;-70
2023/05/18 04:07:15;;;;;;;11.70;4.40;;;6.10;99.90;;;;;;5075761;28;20085;-70
2023/05/18 04:09:42;;;;;;;7.20;4.00;;;6.10;99.90;;;;;;5076856;28;20426;-70
2023/05/18 04:12:08;;;;;;;9.00;3.95;;;6.20;99.90;;;;;;5093988;28;20043;-70
2023/05/18 04:14:35;;;;;;;9.90;3.85;;;6.20;99.90;;;;;;5070369;28;20040;-70
2023/05/18 04:17:03;;;;;;;10.38;4.55;;;6.30;99.90;;;;;;5093327;28;20096;-70
2023/05/18 04:19:33;;;;;;;10.82;3.97;;;6.30;99.90;;;;;;5103974;27;20035;-71
2023/05/18 04:22:03;;;;;;;8.52;3.72;;;6.40;99.90;;;;;;5098693;28;20396;-71
2023/05/18 04:24:33;;;;;;;10.90;3.60;;;6.40;99.90;;;;;;5092332;28;20078;-71
2023/05/18 04:26:59;;;;;;;6.90;3.38;;;6.50;99.90;;;;;;5076444;28;20052;-71
2023/05/18 04:29:27;;;;;;;9.68;3.95;;;6.50;99.90;;;;;;5089430;28;20048;-71
2023/05/18 04:31:59;;;;;;;11.75;4.45;;;6.50;99.90;;;;;;5075554;28;20051;-71
2023/05/18 04:34:30;;;;;;;10.52;3.75;;;6.60;99.90;;;;;;5093979;28;20403;-71
2023/05/18 04:36:59;;;;;;;8.35;3.65;;;6.60;99.90;;;;;;5093273;28;20051;-71
2023/05/18 04:39:26;;;;;;;8.63;3.88;;;6.70;99.90;;;;;;5076454;28;20047;-71
2023/05/18 04:41:57;;;;;;;7.72;4.00;;;6.70;99.90;;;;;;5092812;28;20036;-71
2023/05/18 04:44:30;;;;;;;7.07;3.75;;;6.80;99.90;;;;;;5076292;28;20047;-71
2023/05/18 04:46:56;;;;;;;9.38;4.22;;;6.80;99.90;;;;;;5086633;28;20040;-71
2023/05/18 04:49:22;;;;;;;11.70;4.57;;;6.90;99.90;;;;;;5093055;28;20047;-71
2023/05/18 04:51:56;;;;;;;5.63;3.60;;;6.90;99.90;;;;;;5078938;28;20391;-71
2023/05/18 04:54:29;;;;;;;17.90;4.10;;;7.00;99.90;;;;;;5092957;28;20122;-71
2023/05/18 04:56:55;;;;;;;13.00;4.22;;;7.00;99.90;;;;;;5092872;28;20127;-70
2023/05/18 04:59:25;;;;;;;7.35;3.97;;;7.10;99.90;;;;;;5092743;28;20124;-70
2023/05/18 05:01:51;;;;;;;5.88;3.17;;;7.10;99.90;;;;;;5093190;28;20032;-70
2023/05/18 05:04:19;;;;;;;7.82;3.42;;;7.20;99.90;;;;;;5092091;28;20084;-70
2023/05/18 05:06:45;;;;;;;12.05;3.50;;;7.20;99.90;;;;;;5092481;28;20126;-70
2023/05/18 05:09:12;;;;;;;8.27;3.47;;;7.30;99.90;;;;;;5092957;28;20559;-70
2023/05/18 05:11:38;;;;;;;7.35;3.45;;;7.40;99.90;;;;;;5076247;28;20492;-70
2023/05/18 05:14:04;;;;;;;10.03;3.17;;;7.50;99.90;;;;;;5075509;28;20065;-71
2023/05/18 05:16:30;;;;;;;8.67;2.87;;;7.60;99.90;;;;;;5092685;28;20036;-71
2023/05/18 05:18:55;;;;;;;9.20;2.77;;;7.60;99.90;;;;;;5103323;27;20047;-71
2023/05/18 05:21:21;;;;;;;9.90;2.37;;;7.70;99.90;;;;;;5076677;28;20047;-71
2023/05/18 05:23:47;;;;;;;10.13;2.40;;;7.70;99.90;;;;;;5071528;28;20424;-71
2023/05/18 05:26:12;;;;;;;5.43;2.37;;;7.80;99.90;;;;;;5092232;28;20040;-71
2023/05/18 05:28:39;;;;;;;6.17;1.73;;;7.90;99.90;;;;;;5090306;28;20075;-71
2023/05/18 05:31:05;;;;;;;7.30;2.25;;;7.90;99.90;;;;;;5075465;28;20040;-71
2023/05/18 05:33:30;;;;;;;5.63;1.80;;;7.90;98.20;;;;;;5092535;28;20035;-71
2023/05/18 05:35:56;;;;;;;6.73;1.80;;;8.00;97.40;;;;;;5075365;28;20067;-71
2023/05/18 05:38:22;;;;;;;10.97;2.13;;;8.00;97.70;;;;;;5092045;28;20035;-71
2023/05/18 05:40:48;;;;;;;5.83;2.50;;;8.10;96.60;;;;;;5092106;28;20043;-71
2023/05/18 05:43:13;;;;;;;9.50;2.80;;;8.20;96.00;;;;;;5075531;28;20039;-71
2023/05/18 05:45:39;;;;;;;10.13;2.47;;;8.20;96.80;;;;;;5075206;28;20180;-71
2023/05/18 05:48:05;;;;;;;6.13;1.83;;;8.30;96.30;;;;;;5074876;28;20099;-71
2023/05/18 05:50:31;;;;;;;7.07;2.50;;;8.40;95.40;;;;;;5092008;28;20480;-71
2023/05/18 05:52:57;;;;;;;8.60;2.33;;;8.50;94.20;;;;;;5075789;28;20040;-71
2023/05/18 05:55:23;;;;;;;9.70;2.00;;;8.60;92.70;;;;;;5074852;28;20047;-71
2023/05/18 05:57:48;;;;;;;6.97;2.20;;;8.70;93.20;;;;;;5091427;28;20036;-71
2023/05/18 06:00:15;;;;;;;8.03;2.20;;;8.80;92.20;;;;;;5091719;28;20454;-71
2023/05/18 06:02:40;;;;;;;7.63;1.90;;;8.90;89.10;;;;;;5091638;28;20499;-71
2023/05/18 06:05:07;;;;;;;8.03;2.20;;;9.00;92.00;;;;;;5074635;28;20039;-71
2023/05/18 06:07:33;;;;;;;7.78;1.77;;;9.10;91.40;;;;;;5091203;28;20271;-71
2023/05/18 06:09:59;;;;;;;5.95;2.35;;;9.20;89.90;;;;;;5091943;28;20047;-71
2023/05/18 06:12:25;;;;;;;8.97;2.37;;;9.40;91.60;;;;;;5074571;28;20039;-71
2023/05/18 06:14:53;;;;;;;6.73;1.50;;;9.50;90.10;;;;;;5091581;28;20043;-71
2023/05/18 06:17:19;;;;;;;7.82;2.17;;;9.70;89.30;;;;;;5092184;28;20071;-71
2023/05/18 06:19:44;;;;;;;8.50;1.90;;;9.80;87.40;;;;;;5095662;28;20036;-71
2023/05/18 06:22:10;;;;;;;6.37;1.37;;;9.90;86.80;;;;;;5092478;28;20036;-71
2023/05/18 06:24:36;;;;;;;5.53;1.10;;;10.00;83.10;;;;;;5074113;28;20052;-71
2023/05/18 06:27:03;;;;;;;4.73;1.27;;;10.10;86.00;;;;;;5091215;28;20451;-71
2023/05/18 06:29:29;;;;;;;5.88;1.20;;;10.20;83.70;;;;;;5088880;28;20388;-71
2023/05/18 06:31:56;;;;;;;8.70;1.60;;;10.30;81.80;;;;;;5091366;28;20047;-71
2023/05/18 06:34:21;;;;;;;5.95;1.40;;;10.40;82.90;;;;;;5090759;28;20443;-71
2023/05/18 06:36:47;;;;;;;6.47;1.60;;;10.60;82.00;;;;;;5089700;28;20063;-71
2023/05/18 06:39:13;;;;;;;8.53;1.50;;;10.60;80.70;;;;;;5091191;28;20047;-71
2023/05/18 06:41:39;;;;;;;6.50;1.20;;;10.70;78.10;;;;;;5075810;28;20379;-73
2023/05/18 06:44:05;;;;;;;9.13;1.43;;;10.80;79.90;;;;;;5077203;28;20095;-71
2023/05/18 06:46:30;;;;;;;8.10;1.85;;;10.90;78.20;;;;;;5077508;28;20054;-71
2023/05/18 06:48:56;;;;;;;4.97;1.30;;;11.00;77.10;;;;;;5093855;28;20047;-72
2023/05/18 06:51:22;;;;;;;9.90;1.50;;;11.10;76.00;;;;;;5094388;28;20499;-72
2023/05/18 06:53:49;;;;;;;7.57;1.27;;;11.20;76.40;;;;;;5075256;28;20134;-72
2023/05/18 06:56:15;;;;;;;8.00;1.10;;;11.30;76.00;;;;;;5076257;28;20123;-72
2023/05/18 06:58:42;;;;;;;4.70;1.20;;;11.40;73.80;;;;;;5075736;28;20035;-73
2023/05/18 07:01:08;;;;;;;4.68;1.20;;;11.50;70.30;;;;;;5091970;28;20376;-72
2023/05/18 07:03:34;;;;;;;5.30;1.05;;;11.70;71.70;;;;;;5091789;28;20399;-73
2023/05/18 07:06:05;;;;;;;5.37;0.90;;;12.00;68.50;;;;;;5075763;28;20071;-73
2023/05/18 07:08:31;;;;;;;6.37;1.67;;;12.20;69.70;;;;;;5092153;28;20292;-72
2023/05/18 07:10:58;;;;;;;7.27;1.90;;;12.50;69.70;;;;;;5076477;28;20283;-73
2023/05/18 07:13:24;;;;;;;3.57;1.40;;;12.60;67.70;;;;;;5075867;28;20370;-73
2023/05/18 07:15:50;;;;;;;8.13;1.13;;;12.80;66.80;;;;;;5079449;28;20399;-72
2023/05/18 07:18:16;;;;;;;3.33;1.13;;;12.90;66.70;;;;;;5078053;28;20373;-72
2023/05/18 07:20:42;;;;;;;4.67;1.20;;;13.00;63.50;;;;;;5102545;28;20339;-73
2023/05/18 07:23:08;;;;;;;5.30;1.10;;;13.20;63.10;;;;;;5081418;28;20031;-72
2023/05/18 07:25:33;;;;;;;6.10;1.20;;;13.40;63.70;;;;;;5084976;28;20137;-73
2023/05/18 07:27:59;;;;;;;5.00;1.30;;;13.50;62.90;;;;;;5096050;28;20059;-72
2023/05/18 07:30:25;;;;;;;4.50;1.53;;;13.60;62.00;;;;;;5085173;28;20036;-72
2023/05/18 07:32:51;;;;;;;7.10;1.63;;;13.70;60.70;;;;;;5102154;28;20475;-72
2023/05/18 07:35:20;;;;;;;5.23;1.03;;;13.70;59.60;;;;;;5077525;28;20127;-73
2023/05/18 07:37:46;;;;;;;3.97;1.33;;;13.80;59.90;;;;;;5091321;28;20338;-73
2023/05/18 07:40:12;;;;;;;4.33;1.20;;;13.80;59.20;;;;;;5076303;28;20281;-73
2023/05/18 07:42:39;;;;;;;8.30;2.07;;;13.90;60.80;;;;;;5096721;28;20042;-73
2023/05/18 07:45:06;;;;;;;8.10;1.60;;;14.10;61.00;;;;;;5080009;28;20277;-72
2023/05/18 07:47:32;;;;;;;6.93;1.90;;;14.30;59.80;;;;;;5096092;28;20300;-72
2023/05/18 07:49:58;;;;;;;6.80;1.67;;;14.40;57.30;;;;;;5094309;28;20307;-72
2023/05/18 07:52:23;;;;;;;5.50;1.40;;;14.40;57.30;;;;;;5097800;27;20291;-72
2023/05/18 07:54:49;;;;;;;6.30;1.53;;;14.40;57.30;;;;;;5094652;28;20492;-72
2023/05/18 07:57:15;;;;;;;4.63;1.20;;;14.50;56.80;;;;;;5095902;28;20092;-73
2023/05/18 07:59:41;;;;;;;5.90;1.90;;;14.50;56.50;;;;;;5101139;27;20437;-73
2023/05/18 08:02:06;;;;;;;7.43;1.23;;;14.60;57.20;;;;;;5086618;27;20073;-73
2023/05/18 08:04:32;;;;;;;5.00;1.30;;;14.80;56.20;;;;;;5102369;27;20071;-72
2023/05/18 08:06:59;;;;;;;7.73;1.63;;;15.00;53.00;;;;;;5103531;28;20035;-72
2023/05/18 08:09:28;;;;;;;8.40;1.60;;;14.80;54.40;;;;;;5080114;28;20777;-73
2023/05/18 08:11:54;;;;;;;4.53;1.47;;;15.00;54.80;;;;;;5079659;27;20832;-72
2023/05/18 08:14:20;;;;;;;6.70;1.43;;;15.00;54.20;;;;;;5105651;27;20381;-72
2023/05/18 08:16:46;;;;;;;6.23;1.93;;;15.20;55.80;;;;;;5088027;27;20394;-73
2023/05/18 08:19:11;;;;;;;4.10;1.10;;;15.40;55.60;;;;;;5097765;28;20282;-72
2023/05/18 08:21:37;;;;;;;4.07;1.03;;;15.70;53.50;;;;;;5095692;28;20094;-72
2023/05/18 08:24:03;;;;;;;5.97;1.40;;;15.70;51.70;;;;;;5093986;28;20043;-72
2023/05/18 08:26:29;;;;;;;6.43;1.87;;;15.70;52.70;;;;;;5078277;28;20406;-72
2023/05/18 08:28:55;;;;;;;4.90;1.00;;;15.70;51.60;;;;;;5076402;28;20056;-72
2023/05/18 08:31:21;;;;;;;7.43;1.40;;;15.70;51.90;;;;;;5078798;28;20057;-73
2023/05/18 08:33:47;;;;;;;4.97;1.37;;;15.60;49.90;;;;;;5078283;28;20402;-73
2023/05/18 08:36:13;;;;;;;5.43;1.47;;;15.40;49.70;;;;;;5094441;28;20043;-72
2023/05/18 08:38:38;;;;;;;4.57;1.10;;;15.20;51.10;;;;;;5095019;28;20130;-72
2023/05/18 08:41:27;;;;;;;9.10;1.47;;;15.10;50.90;;;;;;5094302;28;20085;-73
2023/05/18 08:44:00;;;;;;;7.00;1.63;;;15.10;51.40;;;;;;5097306;27;20043;-72
2023/05/18 08:46:32;;;;;;;5.03;1.27;;;15.10;52.90;;;;;;5101307;28;20300;-73
2023/05/18 08:48:59;;;;;;;5.63;1.30;;;15.20;52.40;;;;;;5102492;27;20281;-73
2023/05/18 08:51:29;;;;;;;4.30;1.60;;;15.40;51.10;;;;;;5101193;27;20297;-73
2023/05/18 08:53:55;;;;;;;5.80;1.60;;;15.50;51.80;;;;;;5086636;27;20284;-73
2023/05/18 08:56:22;;;;;;;4.13;1.27;;;15.60;48.70;;;;;;5085179;27;20800;-74
2023/05/18 08:58:51;;;;;;;6.23;1.40;;;15.40;50.80;;;;;;5083365;27;20330;-73
2023/05/18 09:01:16;;;;;;;6.27;1.73;;;15.40;51.00;;;;;;5098689;28;20330;-73
2023/05/18 09:03:45;;;;;;;5.03;1.53;;;15.40;50.40;;;;;;5092799;28;20642;-74
2023/05/18 09:06:11;;;;;;;7.10;1.67;;;15.50;51.00;;;;;;5074846;28;20126;-73
2023/05/18 09:08:38;;;;;;;4.37;1.67;;;15.50;50.40;;;;;;5075566;28;20288;-73
2023/05/18 09:11:05;;;;;;;5.93;1.33;;;15.50;50.40;;;;;;5092734;28;20292;-73
2023/05/18 09:13:31;;;;;;;6.40;2.00;;;15.50;51.00;;;;;;5078666;27;20273;-73
2023/05/18 09:15:57;;;;;;;5.20;1.40;;;15.70;51.70;;;;;;5081069;28;20297;-73
2023/05/18 09:18:22;;;;;;;7.33;2.00;;;15.90;50.50;;;;;;5100192;27;20372;-73
2023/05/18 09:20:48;;;;;;;6.83;1.60;;;16.00;50.50;;;;;;5095106;28;20739;-73
2023/05/18 09:23:17;;;;;;;5.53;1.37;;;16.10;50.50;;;;;;5091843;28;20039;-73
2023/05/18 09:25:44;;;;;;;7.80;1.80;;;16.10;49.30;;;;;;5099265;28;20097;-71
2023/05/18 09:28:13;;;;;;;5.20;2.07;;;16.10;47.90;;;;;;5091779;28;20773;-71
2023/05/18 09:30:40;;;;;;;7.47;1.70;;;15.90;50.20;;;;;;5074147;28;20297;-71
2023/05/18 09:33:17;;;;;;;6.33;1.90;;;15.90;49.90;;;;;;5076537;27;20296;-71
2023/05/18 09:35:45;;;;;;;5.70;1.67;;;16.10;49.30;;;;;;5072198;28;20368;-72
2023/05/18 09:38:14;;;;;;;7.47;2.20;;;16.10;49.90;;;;;;5096537;28;20290;-71
2023/05/18 09:40:44;;;;;;;4.90;1.40;;;16.20;49.80;;;;;;5091928;28;20281;-71
2023/05/18 09:43:10;;;;;;;6.50;1.60;;;16.30;49.00;;;;;;5078667;28;20637;-71
2023/05/18 09:45:41;;;;;;;6.87;2.00;;;16.20;49.20;;;;;;5092363;28;20285;-71
2023/05/18 09:48:08;;;;;;;7.50;1.33;;;16.10;49.60;;;;;;5076117;27;20043;-71
2023/05/18 09:50:36;;;;;;;6.87;1.77;;;16.20;49.10;;;;;;5077844;28;20292;-71
2023/05/18 09:53:05;;;;;;;4.23;1.50;;;16.20;49.90;;;;;;5091987;28;20354;-71
2023/05/18 09:55:31;;;;;;;5.70;1.93;;;16.30;49.90;;;;;;5092149;28;20844;-71
2023/05/18 09:57:57;;;;;;;9.90;1.60;;;16.40;49.40;;;;;;5074543;28;20285;-71
2023/05/18 10:00:24;;;;;;;6.83;1.70;;;16.40;48.50;;;;;;5075174;28;20046;-71
2023/05/18 10:02:53;;;;;;;7.07;2.03;;;16.50;48.40;;;;;;5074400;28;20278;-72
2023/05/18 10:05:23;;;;;;;5.27;1.80;;;16.40;48.20;;;;;;5074512;28;20282;-72
2023/05/18 10:07:53;;;;;;;6.20;1.90;;;16.40;48.80;;;;;;5091642;28;20338;-72
2023/05/18 10:10:22;;;;;;;5.80;1.70;;;16.20;47.60;;;;;;5075339;28;20814;-72
2023/05/18 10:12:50;;;;;;;6.97;2.00;;;16.20;47.30;;;;;;5098946;27;20276;-71
2023/05/18 10:15:19;;;;;;;9.40;2.23;;;16.10;48.00;;;;;;5096207;28;20891;-71
2023/05/18 10:17:46;;;;;;;7.03;2.10;;;16.10;48.80;;;;;;5075231;28;20285;-71
2023/05/18 10:20:17;;;;;;;6.17;2.20;;;16.20;48.60;;;;;;5074837;28;20657;-72
2023/05/18 10:22:47;;;;;;;4.87;1.93;;;16.30;47.80;;;;;;5071933;28;20282;-72
2023/05/18 10:25:19;;;;;;;5.93;1.87;;;16.40;48.20;;;;;;5074379;28;20287;-72
2023/05/18 10:27:50;;;;;;;5.40;1.63;;;16.40;49.80;;;;;;5073944;28;20293;-72
2023/05/18 10:30:18;;;;;;;8.53;1.60;;;16.40;47.70;;;;;;5082938;28;20290;-72
2023/05/18 10:32:45;;;;;;;7.47;1.97;;;16.40;47.20;;;;;;5091657;28;20312;-72
2023/05/18 10:35:11;;;;;;;5.70;1.83;;;16.30;48.10;;;;;;5074377;28;20356;-72
2023/05/18 10:37:46;;;;;;;7.83;1.47;;;16.20;48.20;;;;;;5090760;28;20789;-72
2023/05/18 10:40:12;;;;;;;;;;;16.20;47.80;;;;;;5074768;28;20309;-72
2023/05/18 10:42:40;;;;;;;5.73;1.70;;;16.00;46.50;;;;;;5074243;28;20015;-72
2023/05/18 10:45:08;;;;;;;5.47;1.50;;;15.90;48.60;;;;;;5090985;28;20273;-72
2023/05/18 10:47:38;;;;;;;7.97;2.50;;;15.80;48.80;;;;;;5074366;28;20731;-72
2023/05/18 10:50:05;;;;;;;8.23;1.90;;;15.90;47.80;;;;;;5090775;28;20277;-72
2023/05/18 10:52:32;;;;;;;8.07;2.03;;;15.80;48.90;;;;;;5091449;28;20313;-71
2023/05/18 10:55:01;;;;;;;9.37;2.30;;;15.80;49.30;;;;;;5090788;28;20313;-72
2023/05/18 10:57:34;;;;;;;6.90;2.00;;;16.00;50.30;;;;;;5066913;28;20837;-72
2023/05/18 10:59:59;;;;;;;4.17;1.60;;;16.20;49.10;;;;;;5090789;28;20281;-72
2023/05/18 11:02:26;;;;;;;6.73;2.03;;;16.30;50.00;;;;;;5090319;28;20353;-72
2023/05/18 11:04:53;;;;;;;7.97;1.70;;;16.50;48.10;;;;;;5089580;28;20096;-71
2023/05/18 11:07:20;;;;;;;4.90;1.60;;;16.50;47.00;;;;;;5088745;28;20281;-71
2023/05/18 11:09:47;;;;;;;7.00;1.87;;;16.40;47.90;;;;;;5071911;28;20360;-71
2023/05/18 11:12:16;;;;;;;6.47;1.83;;;16.50;48.30;;;;;;5088780;28;20281;-71
2023/05/18 11:14:51;;;;;;;6.50;1.97;;;16.50;48.90;;;;;;5090689;28;20413;-72
2023/05/18 11:17:19;;;;;;;5.93;2.00;;;16.60;48.10;;;;;;5080270;28;20622;-72
2023/05/18 11:20:06;;;;;;;6.97;2.17;;;16.70;48.70;;;;;;5094226;28;20031;-72
2023/05/18 11:22:56;;;;;;;7.57;2.20;;;16.80;48.40;;;;;;5077956;28;21038;-73
2023/05/18 11:25:31;;;;;;;5.90;1.80;;;17.10;48.90;;;;;;5094897;28;20800;-72
2023/05/18 11:28:05;;;;;;;6.90;1.80;;;17.10;47.50;;;;;;5077314;28;20289;-73
2023/05/18 11:30:35;;;;;;;4.30;1.83;;;17.00;48.30;;;;;;5077221;28;20059;-73
2023/05/18 11:33:13;;;;;;;7.33;2.00;;;17.10;47.80;;;;;;5077670;28;20108;-72
2023/05/18 11:36:07;;;;;;;6.40;1.70;;;17.20;48.80;;;;;;5077511;28;20309;-73
2023/05/18 11:39:03;;;;;;;8.10;2.30;;;17.50;46.20;;;;;;5073502;28;20389;-73
2023/05/18 11:41:41;;;;;;;;;;;17.40;47.90;;;;;;5091764;28;20277;-73
2023/05/18 11:44:19;;;;;;;7.00;1.87;;;17.40;46.50;;;;;;5076071;27;20007;-73
2023/05/18 11:46:57;;;;;;;6.17;2.00;;;17.30;46.70;;;;;;5096939;28;20312;-73
2023/05/18 11:49:46;;;;;;;5.73;1.83;;;17.20;48.10;;;;;;5100408;27;20309;-74
2023/05/18 11:52:23;;;;;;;5.93;1.90;;;17.30;46.20;;;;;;5084955;27;20292;-73
2023/05/18 11:54:51;;;;;;;7.23;2.13;;;17.10;47.50;;;;;;5083026;28;20813;-73
2023/05/18 11:57:41;;;;;;;6.20;2.20;;;17.10;49.00;;;;;;5092342;28;20289;-73
2023/05/18 12:00:10;;;;;;;3.80;1.50;;;17.10;47.90;;;;;;5090062;28;20285;-72
2023/05/18 12:02:37;;;;;;;7.17;2.30;;;17.10;48.40;;;;;;5078532;27;20349;-73
2023/05/18 12:05:08;;;;;;;3.63;2.07;;;17.10;46.50;;;;;;5093925;27;20823;-73
2023/05/18 12:07:35;;;;;;;6.57;2.23;;;17.00;47.50;;;;;;5073734;28;20380;-72
2023/05/18 12:10:09;;;;;;;6.10;1.93;;;17.00;47.00;;;;;;5097126;27;20333;-73
2023/05/18 12:12:35;;;;;;;5.88;2.00;;;16.90;47.80;;;;;;5078335;28;20361;-73
2023/05/18 12:15:12;;;;;;;7.57;2.50;;;16.80;48.20;;;;;;5104190;27;20123;-73
2023/05/18 12:17:41;;;;;;;5.97;2.10;;;16.90;48.00;;;;;;5086641;27;20059;-73
2023/05/18 12:20:12;;;;;;;7.03;2.27;;;16.80;47.60;;;;;;5088109;27;20264;-73
2023/05/18 12:22:39;;;;;;;5.33;2.30;;;16.60;48.10;;;;;;5081019;27;20266;-74
2023/05/18 12:25:05;;;;;;;7.97;2.27;;;16.80;48.60;;;;;;5101717;27;21035;-73
2023/05/18 12:27:43;;;;;;;9.90;2.67;;;16.80;48.40;;;;;;5094578;28;20800;-73
2023/05/18 12:30:16;;;;;;;7.93;2.90;;;16.80;49.70;;;;;;5087988;28;20824;-72
2023/05/18 12:32:51;;;;;;;7.67;2.50;;;16.80;49.20;;;;;;5098025;27;20296;-73
2023/05/18 12:35:20;;;;;;;;;;;16.90;48.80;;;;;;5085326;27;20297;-73
2023/05/18 12:37:46;;;;;;;6.37;2.40;;;16.70;48.40;;;;;;5094462;28;19924;-74
2023/05/18 12:40:13;;;;;;;7.13;2.30;;;16.50;49.10;;;;;;5092903;28;20372;-73
2023/05/18 12:42:49;;;;;;;10.07;2.70;;;16.60;49.40;;;;;;5094338;28;20277;-73
2023/05/18 12:45:15;;;;;;;12.77;3.10;;;16.70;49.50;;;;;;5075162;28;20289;-73
2023/05/18 12:47:41;;;;;;;8.70;2.53;;;16.80;48.60;;;;;;5093998;28;20281;-73
2023/05/18 12:50:08;;;;;;;13.67;3.57;;;16.90;48.50;;;;;;5094525;28;20047;-73
2023/05/18 12:52:33;;;;;;;5.87;1.90;;;17.00;48.50;;;;;;5094028;28;20280;-73
2023/05/18 12:54:59;;;;;;;5.20;2.00;;;17.00;48.70;;;;;;5077591;28;20301;-73
2023/05/18 12:57:29;;;;;;;8.07;2.67;;;17.10;49.60;;;;;;5091107;28;20047;-73